createdAt,value
2023-02-11T00:02:01.644Z,-2.29
2023-02-11T00:04:34.205Z,-2.34
2023-02-11T00:07:06.442Z,-2.36
2023-02-11T00:09:38.601Z,-2.34
2023-02-11T00:12:10.914Z,-2.30
2023-02-11T00:14:43.350Z,-2.33
2023-02-11T00:17:15.856Z,-2.39
2023-02-11T00:19:50.354Z,-2.37
2023-02-11T00:22:22.726Z,-2.41
2023-02-11T00:24:55.017Z,-2.37
2023-02-11T00:27:27.523Z,-2.37
2023-02-11T00:30:02.405Z,-2.41
2023-02-11T00:32:36.568Z,-2.42
2023-02-11T00:35:11.454Z,-2.45
2023-02-11T00:37:44.630Z,-2.47
2023-02-11T00:40:16.914Z,-2.45
2023-02-11T00:42:49.254Z,-2.52
2023-02-11T00:45:22.580Z,-2.54
2023-02-11T00:47:54.694Z,-2.46
2023-02-11T00:50:27.170Z,-2.43
2023-02-11T00:53:01.439Z,-2.53
2023-02-11T00:55:35.765Z,-2.55
2023-02-11T00:58:07.965Z,-2.54
2023-02-11T01:00:41.525Z,-2.58
2023-02-11T01:03:13.682Z,-2.57
2023-02-11T01:05:46.081Z,-2.60
2023-02-11T01:08:18.388Z,-2.65
2023-02-11T01:10:57.219Z,-2.72
2023-02-11T01:13:30.261Z,-2.76
2023-02-11T01:16:02.718Z,-2.69
2023-02-11T01:18:35.415Z,-2.63
2023-02-11T01:21:08.963Z,-2.57
2023-02-11T01:23:41.239Z,-2.66
2023-02-11T01:26:13.614Z,-2.67
2023-02-11T01:28:46.189Z,-2.71
2023-02-11T01:31:18.691Z,-2.72
2023-02-11T01:33:51.017Z,-2.68
2023-02-11T01:36:23.147Z,-2.63
2023-02-11T01:38:55.679Z,-2.58
2023-02-11T01:41:28.240Z,-2.44
2023-02-11T01:44:29.659Z,-2.30
2023-02-11T01:47:04.905Z,-2.17
2023-02-11T01:49:39.885Z,-2.05
2023-02-11T01:52:15.784Z,-2.00
2023-02-11T01:55:10.080Z,-1.92
2023-02-11T01:57:46.597Z,-1.91
2023-02-11T02:00:20.584Z,-1.90
2023-02-11T02:02:59.193Z,-1.87
2023-02-11T02:05:37.407Z,-1.83
2023-02-11T02:08:15.828Z,-1.76
2023-02-11T02:10:54.013Z,-1.72
2023-02-11T02:13:27.154Z,-1.67
2023-02-11T02:16:01.242Z,-1.62
2023-02-11T02:18:51.201Z,-1.65
2023-02-11T02:22:10.878Z,-1.62
2023-02-11T02:24:56.678Z,-1.56
2023-02-11T02:27:38.896Z,-1.52
2023-02-11T02:30:47.941Z,-1.54
2023-02-11T02:33:35.461Z,-1.56
2023-02-11T02:36:16.113Z,-1.59
2023-02-11T02:38:54.421Z,-1.60
2023-02-11T02:41:29.981Z,-1.56
2023-02-11T02:44:02.336Z,-1.52
2023-02-11T02:46:36.516Z,-1.51
2023-02-11T02:49:16.198Z,-1.52
2023-02-11T02:52:15.820Z,-1.52
2023-02-11T02:55:13.018Z,-1.55
2023-02-11T02:58:01.652Z,-1.53
2023-02-11T03:00:44.334Z,-1.52
2023-02-11T03:03:31.422Z,-1.48
2023-02-11T03:06:06.726Z,-1.45
2023-02-11T03:08:44.930Z,-1.37
2023-02-11T03:11:20.822Z,-1.38
2023-02-11T03:13:55.177Z,-1.43
2023-02-11T03:16:29.171Z,-1.45
2023-02-11T03:19:05.205Z,-1.45
2023-02-11T03:21:42.639Z,-1.41
2023-02-11T03:24:18.612Z,-1.37
2023-02-11T03:26:53.862Z,-1.39
2023-02-11T03:29:36.206Z,-1.39
2023-02-11T03:32:16.397Z,-1.45
2023-02-11T03:34:54.328Z,-1.51
2023-02-11T03:37:30.157Z,-1.52
2023-02-11T03:40:06.467Z,-1.55
2023-02-11T03:42:42.241Z,-1.49
2023-02-11T03:45:18.678Z,-1.42
2023-02-11T03:47:52.255Z,-1.37
2023-02-11T03:50:27.861Z,-1.33
2023-02-11T03:53:03.125Z,-1.29
2023-02-11T03:55:40.593Z,-1.24
2023-02-11T03:58:13.443Z,-1.19
2023-02-11T04:00:46.468Z,-1.17
2023-02-11T04:03:19.327Z,-1.13
2023-02-11T04:05:52.423Z,-1.08
2023-02-11T04:08:24.792Z,-1.04
2023-02-11T04:10:56.859Z,-1.02
2023-02-11T04:13:29.159Z,-0.99
2023-02-11T04:16:01.370Z,-0.93
2023-02-11T04:18:33.571Z,-0.89
2023-02-11T04:21:05.808Z,-0.85
2023-02-11T04:23:38.346Z,-0.82
2023-02-11T04:26:10.477Z,-0.82
2023-02-11T04:28:42.830Z,-0.82
2023-02-11T04:31:15.070Z,-0.81
2023-02-11T04:33:48.102Z,-0.81
2023-02-11T04:36:20.230Z,-0.78
2023-02-11T04:38:52.558Z,-0.78
2023-02-11T04:41:24.635Z,-0.69
2023-02-11T04:43:56.794Z,-0.62
2023-02-11T04:46:29.032Z,-0.58
2023-02-11T04:49:01.358Z,-0.54
2023-02-11T04:51:34.454Z,-0.54
2023-02-11T04:54:06.842Z,-0.55
2023-02-11T04:56:39.003Z,-0.58
2023-02-11T04:59:12.041Z,-0.59
2023-02-11T05:01:44.747Z,-0.58
2023-02-11T05:04:17.391Z,-0.55
2023-02-11T05:06:49.772Z,-0.53
2023-02-11T05:09:22.367Z,-0.50
2023-02-11T05:11:54.803Z,-0.48
2023-02-11T05:14:27.079Z,-0.48
2023-02-11T05:16:59.201Z,-0.50
2023-02-11T05:19:32.557Z,-0.48
2023-02-11T05:22:05.055Z,-0.49
2023-02-11T05:24:37.458Z,-0.50
2023-02-11T05:27:09.672Z,-0.50
2023-02-11T05:29:41.987Z,-0.47
2023-02-11T05:32:14.391Z,-0.42
2023-02-11T05:34:46.931Z,-0.41
2023-02-11T05:37:19.580Z,-0.35
2023-02-11T05:39:52.301Z,-0.31
2023-02-11T05:42:24.381Z,-0.33
2023-02-11T05:44:56.436Z,-0.31
2023-02-11T05:47:29.020Z,-0.30
2023-02-11T05:50:01.754Z,-0.33
2023-02-11T05:52:34.272Z,-0.39
2023-02-11T05:55:07.836Z,-0.41
2023-02-11T05:57:40.190Z,-0.42
2023-02-11T06:00:14.930Z,-0.46
2023-02-11T06:02:47.248Z,-0.43
2023-02-11T06:05:20.400Z,-0.43
2023-02-11T06:07:52.578Z,-0.43
2023-02-11T06:10:25.001Z,-0.42
2023-02-11T06:12:57.148Z,-0.41
2023-02-11T06:15:29.570Z,-0.38
2023-02-11T06:18:01.782Z,-0.40
2023-02-11T06:20:34.111Z,-0.43
2023-02-11T06:23:06.221Z,-0.45
2023-02-11T06:25:38.658Z,-0.46
2023-02-11T06:28:11.623Z,-0.47
2023-02-11T06:30:43.991Z,-0.42
2023-02-11T06:33:16.913Z,-0.37
2023-02-11T06:35:49.444Z,-0.31
2023-02-11T06:38:24.144Z,-0.25
2023-02-11T06:40:56.426Z,-0.23
2023-02-11T06:43:28.777Z,-0.21
2023-02-11T06:46:01.471Z,-0.23
2023-02-11T06:48:34.066Z,-0.24
2023-02-11T06:51:08.364Z,-0.24
2023-02-11T06:53:42.348Z,-0.25
2023-02-11T06:56:16.981Z,-0.25
2023-02-11T06:58:49.209Z,-0.24
2023-02-11T07:01:21.483Z,-0.21
2023-02-11T07:03:54.820Z,-0.16
2023-02-11T07:06:28.543Z,-0.09
2023-02-11T07:09:00.797Z,-0.05
2023-02-11T07:11:33.776Z,-0.03
2023-02-11T07:14:09.525Z,0.01
2023-02-11T07:16:42.173Z,0.03
2023-02-11T07:19:14.567Z,0.00
2023-02-11T07:21:46.772Z,0.04
2023-02-11T07:24:18.933Z,0.10
2023-02-11T07:26:51.514Z,0.19
2023-02-11T07:29:23.915Z,0.28
2023-02-11T07:31:56.432Z,0.33
2023-02-11T07:34:28.945Z,0.34
2023-02-11T07:37:01.213Z,0.33
2023-02-11T07:39:33.597Z,0.39
2023-02-11T07:42:10.563Z,0.46
2023-02-11T07:44:44.668Z,0.58
2023-02-11T07:47:17.240Z,0.72
2023-02-11T07:49:51.158Z,0.88
2023-02-11T07:52:24.686Z,1.05
2023-02-11T07:54:57.959Z,1.20
2023-02-11T07:57:30.807Z,1.33
2023-02-11T08:00:03.132Z,1.42
2023-02-11T08:02:43.002Z,1.48
2023-02-11T08:05:15.423Z,1.50
2023-02-11T08:07:47.598Z,1.51
2023-02-11T08:10:19.753Z,1.58
2023-02-11T08:12:51.948Z,1.61
2023-02-11T08:15:24.349Z,1.68
2023-02-11T08:17:56.682Z,1.74
2023-02-11T08:20:29.755Z,1.74
2023-02-11T08:23:02.274Z,1.77
2023-02-11T08:25:35.528Z,1.76
2023-02-11T08:28:09.434Z,1.78
2023-02-11T08:30:41.733Z,1.73
2023-02-11T08:33:13.900Z,1.77
2023-02-11T08:35:46.678Z,1.83
2023-02-11T08:38:19.053Z,1.92
2023-02-11T08:40:51.522Z,1.96
2023-02-11T08:43:24.920Z,2.02
2023-02-11T08:45:59.521Z,2.10
2023-02-11T08:48:34.421Z,2.16
2023-02-11T08:51:11.290Z,2.22
2023-02-11T08:53:43.624Z,2.27
2023-02-11T08:56:17.540Z,2.31
2023-02-11T08:58:50.639Z,2.34
2023-02-11T09:01:26.245Z,2.40
2023-02-11T09:03:59.598Z,2.39
2023-02-11T09:06:32.081Z,2.37
2023-02-11T09:09:04.658Z,2.39
2023-02-11T09:11:38.199Z,2.42
2023-02-11T09:14:16.639Z,2.44
2023-02-11T09:16:49.398Z,2.45
2023-02-11T09:19:23.234Z,2.46
2023-02-11T09:21:55.985Z,2.47
2023-02-11T09:24:29.017Z,2.49
2023-02-11T09:27:01.363Z,2.52
2023-02-11T09:29:33.761Z,2.58
2023-02-11T09:32:09.754Z,2.67
2023-02-11T09:34:43.078Z,2.77
2023-02-11T09:37:15.379Z,2.85
2023-02-11T09:39:47.960Z,2.91
2023-02-11T09:42:45.631Z,2.98
2023-02-11T09:45:23.756Z,3.02
2023-02-11T09:48:00.516Z,3.04
2023-02-11T09:50:37.118Z,3.04
2023-02-11T09:53:16.320Z,3.12
2023-02-11T09:55:55.965Z,3.20
2023-02-11T09:58:32.095Z,3.30
2023-02-11T10:01:10.476Z,3.48
2023-02-11T10:04:00.688Z,3.64
2023-02-11T10:06:40.902Z,3.70
2023-02-11T10:09:33.324Z,3.72
2023-02-11T10:12:23.641Z,3.75
2023-02-11T10:15:23.790Z,3.73
2023-02-11T10:18:12.089Z,3.72
2023-02-11T10:20:58.696Z,3.85
2023-02-11T10:23:37.517Z,4.02
2023-02-11T10:26:16.342Z,4.21
2023-02-11T10:28:51.083Z,4.39
2023-02-11T10:31:26.445Z,4.49
2023-02-11T10:34:03.796Z,4.56
2023-02-11T10:36:38.901Z,4.64
2023-02-11T10:39:16.215Z,4.75
2023-02-11T10:41:52.583Z,4.83
2023-02-11T10:44:29.132Z,4.90
2023-02-11T10:47:06.395Z,4.91
2023-02-11T10:49:41.187Z,4.91
2023-02-11T10:52:23.948Z,4.92
2023-02-11T10:55:06.634Z,4.91
2023-02-11T10:57:44.811Z,4.87
2023-02-11T11:00:41.311Z,4.88
2023-02-11T11:03:22.654Z,4.87
2023-02-11T11:05:58.560Z,4.81
2023-02-11T11:08:43.823Z,4.79
2023-02-11T11:11:19.464Z,4.73
2023-02-11T11:14:01.230Z,4.67
2023-02-11T11:16:36.555Z,4.68
2023-02-11T11:19:26.465Z,4.72
2023-02-11T11:22:00.791Z,4.71
2023-02-11T11:24:42.893Z,4.72
2023-02-11T11:27:22.955Z,4.70
2023-02-11T11:29:58.345Z,4.62
2023-02-11T11:32:33.687Z,4.55
2023-02-11T11:35:22.600Z,4.51
2023-02-11T11:38:01.735Z,4.50
2023-02-11T11:40:35.801Z,4.50
2023-02-11T11:43:23.240Z,4.51
2023-02-11T11:46:03.009Z,4.54
2023-02-11T11:48:39.613Z,4.52
2023-02-11T11:51:14.903Z,4.51
2023-02-11T11:53:54.737Z,4.51
2023-02-11T11:56:30.252Z,4.52
2023-02-11T11:59:12.320Z,4.51
2023-02-11T12:01:49.366Z,4.51
2023-02-11T12:04:40.586Z,4.47
2023-02-11T12:07:26.077Z,4.45
2023-02-11T12:10:26.702Z,4.44
2023-02-11T12:13:08.250Z,4.45
2023-02-11T12:15:50.997Z,4.49
2023-02-11T12:18:45.545Z,4.53
2023-02-11T12:21:31.005Z,4.57
2023-02-11T12:24:17.512Z,4.56
2023-02-11T12:26:57.905Z,4.53
2023-02-11T12:29:50.105Z,4.51
2023-02-11T12:32:36.646Z,4.50
2023-02-11T12:35:24.685Z,4.48
2023-02-11T12:38:21.818Z,4.44
2023-02-11T12:41:10.464Z,4.41
2023-02-11T12:43:45.583Z,4.39
2023-02-11T12:46:44.682Z,4.40
2023-02-11T12:49:34.709Z,4.44
2023-02-11T12:52:29.444Z,4.42
2023-02-11T12:55:09.370Z,4.46
2023-02-11T12:57:45.810Z,4.48
2023-02-11T13:00:22.457Z,4.48
2023-02-11T13:03:01.599Z,4.43
2023-02-11T13:05:40.847Z,4.40
2023-02-11T13:08:17.404Z,4.33
2023-02-11T13:10:54.349Z,4.27
2023-02-11T13:13:31.282Z,4.23
2023-02-11T13:16:08.039Z,4.18
2023-02-11T13:18:51.006Z,4.11
2023-02-11T13:21:37.889Z,4.06
2023-02-11T13:24:20.925Z,3.97
2023-02-11T13:27:02.555Z,3.91
2023-02-11T13:29:44.931Z,3.85
2023-02-11T13:32:16.406Z,3.82
2023-02-11T13:35:00.537Z,3.83
2023-02-11T13:37:37.945Z,3.84
2023-02-11T13:40:24.928Z,3.80
2023-02-11T13:43:00.109Z,3.78
2023-02-11T13:45:37.192Z,3.75
2023-02-11T13:48:21.492Z,3.69
2023-02-11T13:50:57.379Z,3.67
2023-02-11T13:53:30.758Z,3.70
2023-02-11T13:56:11.608Z,3.73
2023-02-11T13:58:51.980Z,3.74
2023-02-11T14:02:16.374Z,3.73
2023-02-11T14:05:38.091Z,3.71
2023-02-11T14:08:43.136Z,3.66
2023-02-11T14:11:49.131Z,3.66
2023-02-11T14:14:28.093Z,3.67
2023-02-11T14:17:31.225Z,3.66
2023-02-11T14:20:27.591Z,3.67
2023-02-11T14:23:00.296Z,3.66
2023-02-11T14:25:33.266Z,3.65
2023-02-11T14:28:16.410Z,3.65
2023-02-11T14:31:05.212Z,3.68
2023-02-11T14:34:14.574Z,3.71
2023-02-11T14:37:05.194Z,3.75
2023-02-11T14:39:52.832Z,3.76
2023-02-11T14:42:28.422Z,3.80
2023-02-11T14:45:05.816Z,3.79
2023-02-11T14:47:46.668Z,3.77
2023-02-11T14:50:24.350Z,3.77
2023-02-11T14:53:00.217Z,3.75
2023-02-11T14:55:37.379Z,3.79
2023-02-11T14:58:17.886Z,3.80
2023-02-11T15:00:57.484Z,3.84
2023-02-11T15:03:37.702Z,3.85
2023-02-11T15:06:18.553Z,3.91
2023-02-11T15:08:54.713Z,3.97
2023-02-11T15:11:30.116Z,3.99
2023-02-11T15:14:09.297Z,4.02
2023-02-11T15:16:46.899Z,4.07
2023-02-11T15:19:26.870Z,4.10
2023-02-11T15:21:59.776Z,4.11
2023-02-11T15:24:35.151Z,4.08
2023-02-11T15:27:15.583Z,4.04
2023-02-11T15:29:50.830Z,3.99
2023-02-11T15:32:26.719Z,3.92
2023-02-11T15:34:59.235Z,3.83
2023-02-11T15:37:32.418Z,3.85
2023-02-11T15:40:19.003Z,3.90
2023-02-11T15:42:59.356Z,3.96
2023-02-11T15:45:35.051Z,4.04
2023-02-11T15:48:15.353Z,4.10
2023-02-11T15:50:55.088Z,4.16
2023-02-11T15:53:32.673Z,4.22
2023-02-11T15:56:11.410Z,4.31
2023-02-11T15:58:46.239Z,4.36
2023-02-11T16:01:19.064Z,4.43
2023-02-11T16:03:54.122Z,4.48
2023-02-11T16:06:29.541Z,4.51
2023-02-11T16:09:05.863Z,4.54
2023-02-11T16:11:55.116Z,4.58
2023-02-11T16:14:32.799Z,4.62
2023-02-11T16:17:10.522Z,4.67
2023-02-11T16:19:49.014Z,4.72
2023-02-11T16:22:26.386Z,4.76
2023-02-11T16:25:01.051Z,4.75
2023-02-11T16:27:39.287Z,4.75
2023-02-11T16:30:29.271Z,4.73
2023-02-11T16:33:01.820Z,4.71
2023-02-11T16:35:34.007Z,4.66
2023-02-11T16:38:06.572Z,4.64
2023-02-11T16:40:38.990Z,4.64
2023-02-11T16:43:11.985Z,4.62
2023-02-11T16:45:44.920Z,4.60
2023-02-11T16:48:20.369Z,4.61
2023-02-11T16:50:53.727Z,4.59
2023-02-11T16:53:27.251Z,4.63
2023-02-11T16:55:59.379Z,4.65
2023-02-11T16:58:32.121Z,4.68
2023-02-11T17:01:05.432Z,4.69
2023-02-11T17:03:40.731Z,4.68
2023-02-11T17:06:14.637Z,4.64
2023-02-11T17:08:47.967Z,4.60
2023-02-11T17:11:20.415Z,4.58
2023-02-11T17:13:52.664Z,4.56
2023-02-11T17:16:28.054Z,4.55
2023-02-11T17:19:00.263Z,4.54
2023-02-11T17:21:32.634Z,4.53
2023-02-11T17:24:05.048Z,4.51
2023-02-11T17:26:37.654Z,4.46
2023-02-11T17:29:11.656Z,4.43
2023-02-11T17:31:44.693Z,4.40
2023-02-11T17:34:18.843Z,4.38
2023-02-11T17:36:52.312Z,4.38
2023-02-11T17:39:24.732Z,4.37
2023-02-11T17:41:57.004Z,4.35
2023-02-11T17:44:30.688Z,4.32
2023-02-11T17:47:03.059Z,4.30
2023-02-11T17:49:35.356Z,4.31
2023-02-11T17:52:07.848Z,4.30
2023-02-11T17:54:40.972Z,4.29
2023-02-11T17:57:15.200Z,4.29
2023-02-11T17:59:48.111Z,4.26
2023-02-11T18:02:20.894Z,4.24
2023-02-11T18:04:56.017Z,4.21
2023-02-11T18:07:30.364Z,4.17
2023-02-11T18:10:03.427Z,4.13
2023-02-11T18:12:36.137Z,4.14
2023-02-11T18:15:10.375Z,4.13
2023-02-11T18:17:43.189Z,4.11
2023-02-11T18:20:16.116Z,4.09
2023-02-11T18:22:50.312Z,4.05
2023-02-11T18:25:23.808Z,4.03
2023-02-11T18:27:56.024Z,4.01
2023-02-11T18:30:29.696Z,3.99
2023-02-11T18:33:04.907Z,4.02
2023-02-11T18:35:40.375Z,4.01
2023-02-11T18:38:12.852Z,4.02
2023-02-11T18:40:47.590Z,4.03
2023-02-11T18:43:19.973Z,4.01
2023-02-11T18:45:53.321Z,4.04
2023-02-11T18:48:27.443Z,4.05
2023-02-11T18:50:59.738Z,4.07
2023-02-11T18:53:32.259Z,4.08
2023-02-11T18:56:10.949Z,4.10
2023-02-11T18:58:43.568Z,4.12
2023-02-11T19:01:20.844Z,4.13
2023-02-11T19:03:53.974Z,4.13
2023-02-11T19:06:28.934Z,4.14
2023-02-11T19:09:05.330Z,4.15
2023-02-11T19:11:51.129Z,4.18
2023-02-11T19:14:26.256Z,4.22
2023-02-11T19:17:00.550Z,4.27
2023-02-11T19:19:35.796Z,4.32
2023-02-11T19:22:10.509Z,4.35
2023-02-11T19:24:43.514Z,4.34
2023-02-11T19:27:16.145Z,4.33
2023-02-11T19:29:48.420Z,4.29
2023-02-11T19:32:20.745Z,4.26
2023-02-11T19:34:53.787Z,4.27
2023-02-11T19:37:25.950Z,4.28
2023-02-11T19:39:58.525Z,4.30
2023-02-11T19:42:31.403Z,4.33
2023-02-11T19:45:03.795Z,4.37
2023-02-11T19:47:36.412Z,4.39
2023-02-11T19:50:10.781Z,4.38
2023-02-11T19:52:43.569Z,4.39
2023-02-11T19:55:16.305Z,4.37
2023-02-11T19:57:48.967Z,4.39
2023-02-11T20:00:22.790Z,4.42
2023-02-11T20:02:55.139Z,4.45
2023-02-11T20:05:27.688Z,4.47
2023-02-11T20:08:00.432Z,4.47
2023-02-11T20:10:33.015Z,4.46
2023-02-11T20:13:05.406Z,4.44
2023-02-11T20:15:38.093Z,4.42
2023-02-11T20:18:10.570Z,4.42
2023-02-11T20:20:43.205Z,4.43
2023-02-11T20:23:15.892Z,4.45
2023-02-11T20:25:48.656Z,4.49
2023-02-11T20:28:20.936Z,4.50
2023-02-11T20:30:59.900Z,4.49
2023-02-11T20:33:32.636Z,4.48
2023-02-11T20:36:08.187Z,4.45
2023-02-11T20:38:40.811Z,4.42
2023-02-11T20:41:16.822Z,4.40
2023-02-11T20:43:52.568Z,4.40
2023-02-11T20:46:28.393Z,4.43
2023-02-11T20:49:01.690Z,4.44
2023-02-11T20:51:37.067Z,4.47
2023-02-11T20:54:12.737Z,4.49
2023-02-11T20:56:47.846Z,4.48
2023-02-11T20:59:21.247Z,4.47
2023-02-11T21:01:56.678Z,4.44
2023-02-11T21:04:30.932Z,4.46
2023-02-11T21:07:04.240Z,4.47
2023-02-11T21:09:36.797Z,4.47
2023-02-11T21:12:09.591Z,4.45
2023-02-11T21:14:42.059Z,4.47
2023-02-11T21:17:14.736Z,4.50
2023-02-11T21:19:47.315Z,4.51
2023-02-11T21:22:20.395Z,4.52
2023-02-11T21:24:53.420Z,4.48
2023-02-11T21:27:31.307Z,4.45
2023-02-11T21:30:03.791Z,4.45
2023-02-11T21:32:36.139Z,4.45
2023-02-11T21:35:10.590Z,4.46
2023-02-11T21:37:42.929Z,4.48
2023-02-11T21:40:16.203Z,4.48
2023-02-11T21:42:48.690Z,4.49
2023-02-11T21:45:21.696Z,4.49
2023-02-11T21:47:54.745Z,4.49
2023-02-11T21:50:27.425Z,4.51
2023-02-11T21:52:59.589Z,4.55
2023-02-11T21:55:31.790Z,4.63
2023-02-11T21:58:04.658Z,4.67
2023-02-11T22:00:36.961Z,4.68
2023-02-11T22:03:09.423Z,4.66
2023-02-11T22:05:44.141Z,4.65
2023-02-11T22:08:19.162Z,4.60
2023-02-11T22:10:52.558Z,4.58
2023-02-11T22:13:24.983Z,4.63
2023-02-11T22:16:02.929Z,4.56
2023-02-11T22:18:35.623Z,4.52
2023-02-11T22:21:10.350Z,4.49
2023-02-11T22:23:43.397Z,4.47
2023-02-11T22:26:18.604Z,4.44
2023-02-11T22:28:51.782Z,4.42
2023-02-11T22:31:26.372Z,4.39
2023-02-11T22:33:59.218Z,4.36
2023-02-11T22:36:33.274Z,4.33
2023-02-11T22:39:08.939Z,4.34
2023-02-11T22:41:43.790Z,4.34
2023-02-11T22:44:17.655Z,4.34
2023-02-11T22:46:50.289Z,4.36
2023-02-11T22:49:23.495Z,4.38
2023-02-11T22:51:56.066Z,4.38
2023-02-11T22:54:28.803Z,4.40
2023-02-11T22:57:01.245Z,4.40
2023-02-11T22:59:33.442Z,4.39
2023-02-11T23:02:05.835Z,4.38
2023-02-11T23:04:38.185Z,4.41
2023-02-11T23:07:10.993Z,4.42
2023-02-11T23:09:43.719Z,4.42
2023-02-11T23:12:16.443Z,4.42
2023-02-11T23:14:48.761Z,4.44
2023-02-11T23:17:21.279Z,4.47
2023-02-11T23:19:54.537Z,4.49
2023-02-11T23:22:27.150Z,4.47
2023-02-11T23:24:59.957Z,4.45
2023-02-11T23:27:32.520Z,4.46
2023-02-11T23:30:05.558Z,4.49
2023-02-11T23:32:41.064Z,4.50
2023-02-11T23:35:21.995Z,4.49
2023-02-11T23:37:56.522Z,4.50
2023-02-11T23:40:29.190Z,4.53
2023-02-11T23:43:01.739Z,4.57
2023-02-11T23:45:34.327Z,4.57
2023-02-11T23:48:07.050Z,4.57
2023-02-11T23:50:44.079Z,4.57
2023-02-11T23:53:17.199Z,4.59
2023-02-11T23:55:49.577Z,4.64
2023-02-11T23:58:21.941Z,4.67
